• Join FlightAware (Why Join?)
  • Login
  • US Flag 
02:16AM EDT


 

Airport Tracker/Info


-or-


 

Live Flight TrackerFlight Track Log ✈ SKW4664 ✈ 24-Jul-2013 ✈ KMSP - KFSD

Flight Track Log - Related Links

Times and Time Zones

All times are in EDT time to prevent confusion due to time zone crossing. See the SKW4664 flight status page for this flight to view local times or setup timezone preferences in your user account.

Time Position Orientation Groundspeed Altitude Reporting Facility
EDT Latitude Longitude Course Direction KTS MPH feet Rate Location/Type
10:26AM 44.8222 -93.2494 235° Southwest 173 199 3,000  Level Minneapolis Center
10:27AM 44.7814 -93.3131 228° Southwest 234 269 5,600 2,220 Climbing Minneapolis Center
10:28AM 44.6748 -93.6505 235° Southwest  Level FlightAware Approximate
10:28AM 44.7475 -93.4039 242° Southwest 271 312 7,700  Level Minneapolis Center
10:29AM 44.6013 -93.7974 235° Southwest  Level FlightAware Approximate
10:29AM 44.7117 -93.4997 242° Southwest 278 320 10,700  Level Minneapolis Center
10:30AM 44.5178 -93.9315 230° Southwest  Level FlightAware Approximate
10:30AM 44.6736 -93.6019 242° Southwest 302 348 12,500  Level Minneapolis Center
10:31AM 44.4444 -94.0780 235° Southwest  Level FlightAware Approximate
10:31AM 44.6222 -93.7392 242° Southwest 335 386 14,600  Level Minneapolis Center
10:32AM 44.5753 -93.8589 241° Southwest 352 405 16,300 1,560 Climbing Minneapolis Center
10:33AM 44.5225 -93.9772 238° Southwest 358 412 17,900 1,500 Climbing Minneapolis Center
10:34AM 44.4833 -94.1047 247° West 356 410 19,500 1,380 Climbing Minneapolis Center
10:35AM 44.4406 -94.2353 245° Southwest 368 423 20,800 1,080 Climbing Minneapolis Center
10:36AM 44.3978 -94.3683 246° West 375 432 21,800 540 Climbing Minneapolis Center
10:37AM 44.3447 -94.5297 245° Southwest 380 437 22,000 60 Climbing Minneapolis Center
10:38AM 44.3053 -94.6506 246° West 374 430 22,000  Level Minneapolis Center
10:39AM 44.2642 -94.7717 245° Southwest 351 404 22,000  Level Minneapolis Center
10:40AM 44.2200 -94.9053 245° Southwest 320 368 22,000  Level Minneapolis Center
10:41AM 44.1836 -95.0111 244° Southwest 305 351 22,000  Level Minneapolis Center
10:42AM 44.1492 -95.1156 245° Southwest 299 344 22,000  Level Minneapolis Center
10:43AM 44.1131 -95.2208 244° Southwest 300 345 22,000  Level Minneapolis Center
10:44AM 44.0769 -95.3253 244° Southwest 300 345 22,000  Level Minneapolis Center
10:45AM 44.0414 -95.4297 245° Southwest 299 344 22,000  Level Minneapolis Center
10:46AM 43.9983 -95.5550 244° Southwest 299 344 22,000  Level Minneapolis Center
10:47AM 43.9625 -95.6597 245° Southwest 300 345 22,000 -120 Level Minneapolis Center
10:48AM 43.9258 -95.7639 244° Southwest 299 344 21,800 -1,140 Descending Minneapolis Center
10:49AM 43.8892 -95.8728 245° Southwest 308 354 19,700 -2,040 Descending Minneapolis Center
10:50AM 43.8514 -95.9800 244° Southwest 309 356 17,700 -1,800 Descending Minneapolis Center
10:51AM 43.8158 -96.0858 245° Southwest 303 349 16,100 -1,680 Descending Minneapolis Center
10:52AM 43.7825 -96.1894 246° West 296 341 14,300 -1,980 Descending Minneapolis Center
10:53AM 43.7386 -96.3036 242° Southwest 284 327 12,100 -2,040 Descending Minneapolis Center
10:54AM 43.6844 -96.3839 227° Southwest 287 330 10,100 -1,980 Descending Minneapolis Center
10:56AM 43.6331 -96.4647 229° Southwest 283 326 8,100 -1,920 Descending Minneapolis Center
10:57AM 43.5828 -96.5450 229° Southwest 280 322 6,100 -1,920 Descending Minneapolis Center